createdAt,value
2018-07-31T00:01:47.976Z,99.90
2018-07-31T00:04:16.420Z,99.90
2018-07-31T00:09:13.036Z,99.90
2018-07-31T00:11:41.492Z,99.90
2018-07-31T00:14:09.937Z,99.90
2018-07-31T00:16:38.388Z,99.90
2018-07-31T00:19:06.871Z,99.90
2018-07-31T00:21:35.355Z,99.90
2018-07-31T00:24:03.848Z,99.90
2018-07-31T00:26:32.319Z,99.90
2018-07-31T00:29:00.755Z,99.90
2018-07-31T00:31:29.201Z,99.90
2018-07-31T00:33:57.634Z,99.90
2018-07-31T00:36:26.095Z,99.90
2018-07-31T00:38:54.546Z,99.90
2018-07-31T00:41:23.027Z,99.90
2018-07-31T00:43:51.450Z,99.90
2018-07-31T00:46:19.881Z,99.90
2018-07-31T00:48:48.337Z,99.90
2018-07-31T00:51:16.809Z,99.90
2018-07-31T00:53:45.248Z,99.90
2018-07-31T00:56:14.156Z,99.90
2018-07-31T00:58:42.622Z,99.90
2018-07-31T01:01:11.060Z,99.90
2018-07-31T01:03:39.537Z,99.90
2018-07-31T01:06:07.992Z,99.90
2018-07-31T01:08:36.453Z,99.90
2018-07-31T01:11:05.031Z,99.90
2018-07-31T01:13:33.434Z,99.90
2018-07-31T01:16:01.885Z,99.90
2018-07-31T01:18:30.310Z,99.90
2018-07-31T01:20:58.788Z,99.90
2018-07-31T01:23:27.229Z,99.90
2018-07-31T01:25:55.657Z,99.90
2018-07-31T01:28:24.125Z,99.90
2018-07-31T01:30:52.553Z,99.90
2018-07-31T01:33:21.014Z,99.90
2018-07-31T01:35:49.425Z,99.90
2018-07-31T01:38:17.904Z,99.90
2018-07-31T01:43:14.473Z,99.90
2018-07-31T01:45:42.981Z,99.90
2018-07-31T01:48:11.368Z,99.90
2018-07-31T01:53:07.958Z,99.90
2018-07-31T01:55:36.420Z,99.90
2018-07-31T01:58:04.877Z,99.90
2018-07-31T02:00:33.304Z,99.90
2018-07-31T02:03:01.742Z,99.90
2018-07-31T02:05:30.205Z,99.90
2018-07-31T02:07:58.652Z,99.90
2018-07-31T02:10:27.099Z,99.90
2018-07-31T02:12:55.538Z,99.90
2018-07-31T02:15:23.989Z,99.90
2018-07-31T02:17:52.587Z,99.90
2018-07-31T02:20:21.046Z,99.90
2018-07-31T02:22:49.790Z,99.90
2018-07-31T02:25:18.248Z,99.90
2018-07-31T02:27:46.685Z,99.90
2018-07-31T02:30:22.047Z,99.90
2018-07-31T02:32:51.737Z,99.90
2018-07-31T02:35:20.277Z,99.90
2018-07-31T02:37:48.747Z,99.90
2018-07-31T02:40:17.229Z,99.90
2018-07-31T02:42:45.703Z,99.90
2018-07-31T02:45:14.845Z,99.90
2018-07-31T02:47:44.256Z,99.90
2018-07-31T02:50:12.697Z,99.90
2018-07-31T02:52:41.410Z,99.90
2018-07-31T02:55:11.017Z,99.90
2018-07-31T02:57:40.229Z,99.90
2018-07-31T03:02:37.789Z,99.90
2018-07-31T03:05:07.811Z,99.90
2018-07-31T03:07:36.225Z,99.90
2018-07-31T03:10:05.660Z,99.90
2018-07-31T03:12:34.124Z,99.90
2018-07-31T03:15:02.558Z,99.90
2018-07-31T03:17:30.995Z,99.90
2018-07-31T03:19:59.444Z,99.90
2018-07-31T03:22:27.876Z,99.90
2018-07-31T03:24:56.337Z,99.90
2018-07-31T03:27:24.771Z,99.90
2018-07-31T03:29:53.212Z,99.90
2018-07-31T03:32:21.648Z,99.90
2018-07-31T03:34:50.110Z,99.90
2018-07-31T03:37:18.524Z,99.90
2018-07-31T03:39:46.961Z,99.90
2018-07-31T03:42:15.426Z,99.90
2018-07-31T03:44:43.881Z,99.90
2018-07-31T03:47:12.320Z,99.90
2018-07-31T03:49:40.799Z,99.90
2018-07-31T03:52:09.260Z,99.90
2018-07-31T03:54:38.013Z,99.90
2018-07-31T03:57:06.529Z,99.90
2018-07-31T03:59:34.961Z,99.90
2018-07-31T04:02:03.458Z,99.90
2018-07-31T04:04:32.664Z,99.90
2018-07-31T04:07:01.102Z,99.90
2018-07-31T04:09:29.568Z,99.90
2018-07-31T04:11:58.028Z,99.90
2018-07-31T04:14:26.460Z,99.90
2018-07-31T04:16:54.987Z,99.90
2018-07-31T04:19:23.889Z,99.90
2018-07-31T04:21:52.353Z,99.90
2018-07-31T04:24:20.787Z,99.90
2018-07-31T04:26:49.325Z,99.90
2018-07-31T04:29:17.833Z,99.90
2018-07-31T04:31:46.267Z,99.90
2018-07-31T04:34:14.705Z,99.90
2018-07-31T04:36:43.168Z,99.90
2018-07-31T04:39:13.419Z,99.90
2018-07-31T04:41:42.144Z,99.90
2018-07-31T04:44:10.620Z,99.90
2018-07-31T04:49:07.252Z,99.90
2018-07-31T04:51:35.772Z,99.90
2018-07-31T04:54:04.232Z,99.90
2018-07-31T04:59:00.800Z,99.90
2018-07-31T05:01:29.245Z,99.90
2018-07-31T05:03:57.700Z,99.90
2018-07-31T05:06:26.124Z,99.90
2018-07-31T05:08:54.585Z,99.90
2018-07-31T05:11:23.016Z,99.90
2018-07-31T05:13:51.471Z,99.90
2018-07-31T05:16:19.973Z,99.90
2018-07-31T05:21:16.564Z,99.90
2018-07-31T05:23:45.140Z,99.90
2018-07-31T05:26:13.581Z,99.90
2018-07-31T05:28:42.009Z,99.90
2018-07-31T05:31:10.478Z,99.90
2018-07-31T05:33:38.933Z,99.90
2018-07-31T05:36:07.398Z,99.90
2018-07-31T05:38:35.897Z,99.90
2018-07-31T05:41:04.376Z,99.90
2018-07-31T05:43:32.833Z,99.90
2018-07-31T05:46:01.293Z,99.90
2018-07-31T05:48:29.841Z,99.90
2018-07-31T05:50:58.289Z,99.90
2018-07-31T05:53:26.737Z,99.90
2018-07-31T05:55:55.204Z,99.90
2018-07-31T05:58:23.657Z,99.90
2018-07-31T06:00:52.133Z,99.90
2018-07-31T06:03:20.681Z,99.90
2018-07-31T06:05:49.133Z,98.80
2018-07-31T06:10:45.709Z,95.30
2018-07-31T06:13:14.292Z,95.30
2018-07-31T06:15:42.905Z,95.00
2018-07-31T06:18:11.361Z,94.10
2018-07-31T06:20:39.813Z,94.10
2018-07-31T06:23:08.300Z,96.10
2018-07-31T06:25:36.791Z,98.40
2018-07-31T06:28:05.368Z,99.90
2018-07-31T06:30:33.799Z,99.90
2018-07-31T06:33:02.245Z,99.90
2018-07-31T06:35:30.697Z,99.90
2018-07-31T06:37:59.174Z,99.90
2018-07-31T06:40:27.760Z,99.90
2018-07-31T06:42:56.220Z,99.90
2018-07-31T06:45:24.918Z,99.90
2018-07-31T06:47:53.372Z,99.90
2018-07-31T06:50:21.817Z,99.90
2018-07-31T06:52:51.023Z,99.90
2018-07-31T06:55:19.472Z,99.90
2018-07-31T06:57:47.902Z,99.90
2018-07-31T07:00:16.372Z,99.90
2018-07-31T07:02:44.838Z,99.90
2018-07-31T07:05:13.305Z,99.90
2018-07-31T07:07:41.756Z,99.90
2018-07-31T07:10:10.381Z,99.90
2018-07-31T07:12:38.899Z,99.90
2018-07-31T07:15:07.576Z,99.90
2018-07-31T07:17:36.017Z,99.90
2018-07-31T07:20:04.605Z,99.50
2018-07-31T07:22:33.053Z,97.50
2018-07-31T07:25:01.532Z,96.50
2018-07-31T07:27:29.982Z,95.00
2018-07-31T07:29:58.423Z,95.20
2018-07-31T07:32:26.872Z,96.00
2018-07-31T07:34:55.334Z,96.20
2018-07-31T07:39:51.940Z,97.30
2018-07-31T07:42:20.393Z,98.60
2018-07-31T07:44:48.841Z,99.70
2018-07-31T07:47:17.288Z,99.90
2018-07-31T07:49:45.717Z,99.70
2018-07-31T07:52:14.162Z,99.00
2018-07-31T07:54:42.606Z,97.20
2018-07-31T07:57:11.077Z,96.20
2018-07-31T07:59:39.513Z,92.40
2018-07-31T08:04:36.127Z,87.20
2018-07-31T08:07:04.632Z,69.90
2018-07-31T08:09:33.080Z,61.80
2018-07-31T08:12:01.553Z,62.40
2018-07-31T08:14:29.990Z,58.00
2018-07-31T08:16:58.459Z,57.60
2018-07-31T08:19:26.962Z,55.00
2018-07-31T08:21:55.443Z,55.80
2018-07-31T08:24:24.041Z,57.80
2018-07-31T08:29:20.675Z,48.20
2018-07-31T08:31:49.314Z,47.10
2018-07-31T08:34:17.782Z,45.50
2018-07-31T08:36:46.241Z,44.80
2018-07-31T08:39:14.674Z,43.10
2018-07-31T08:41:43.144Z,41.00
2018-07-31T08:44:11.596Z,40.00
2018-07-31T08:46:40.075Z,43.10
2018-07-31T08:51:36.662Z,40.00
2018-07-31T08:56:33.269Z,35.50
2018-07-31T08:59:01.736Z,31.20
2018-07-31T09:01:30.284Z,31.10
2018-07-31T09:03:58.781Z,29.60
2018-07-31T09:06:27.267Z,28.80
2018-07-31T09:08:55.785Z,27.60
2018-07-31T09:11:24.199Z,27.10
2018-07-31T09:13:52.678Z,27.30
2018-07-31T09:16:21.120Z,25.50
2018-07-31T09:18:49.613Z,26.40
2018-07-31T09:21:18.061Z,28.40
2018-07-31T09:23:46.545Z,28.90
2018-07-31T09:26:14.988Z,30.60
2018-07-31T09:31:12.476Z,31.20
2018-07-31T09:33:41.238Z,28.10
2018-07-31T09:38:37.849Z,26.10
2018-07-31T09:41:06.392Z,27.10
2018-07-31T09:43:34.893Z,26.90
2018-07-31T09:46:03.437Z,25.60
2018-07-31T09:48:31.943Z,25.70
2018-07-31T09:51:00.408Z,27.40
2018-07-31T09:53:28.873Z,28.20
2018-07-31T09:55:57.364Z,29.90
2018-07-31T09:58:25.869Z,31.30
2018-07-31T10:00:59.684Z,32.20
2018-07-31T10:03:28.161Z,32.00
2018-07-31T10:06:03.111Z,31.70
2018-07-31T10:08:31.584Z,30.80
2018-07-31T10:11:00.045Z,29.90
2018-07-31T10:15:56.688Z,29.00
2018-07-31T10:18:25.161Z,28.40
2018-07-31T10:20:53.612Z,28.70
2018-07-31T10:23:22.065Z,30.70
2018-07-31T10:25:50.608Z,32.30
2018-07-31T10:30:47.295Z,30.10
2018-07-31T10:33:15.697Z,27.40
2018-07-31T10:35:44.172Z,26.70
2018-07-31T10:38:12.650Z,26.10
2018-07-31T10:40:41.106Z,26.40
2018-07-31T10:43:09.582Z,26.00
2018-07-31T10:45:38.103Z,25.30
2018-07-31T10:48:06.641Z,25.00
2018-07-31T10:50:35.164Z,26.80
2018-07-31T10:53:03.605Z,30.20
2018-07-31T10:55:32.069Z,31.90
2018-07-31T10:58:00.555Z,31.10
2018-07-31T11:02:57.167Z,29.30
2018-07-31T11:05:25.745Z,31.20
2018-07-31T11:07:54.193Z,32.90
2018-07-31T11:10:22.892Z,33.80
2018-07-31T11:12:51.376Z,33.60
2018-07-31T11:15:19.877Z,30.30
2018-07-31T11:17:48.322Z,29.00
2018-07-31T11:20:16.800Z,27.00
2018-07-31T11:22:45.272Z,26.60
2018-07-31T11:25:13.843Z,28.10
2018-07-31T11:27:42.287Z,28.50
2018-07-31T11:30:10.764Z,29.60
2018-07-31T11:32:39.201Z,30.80
2018-07-31T11:35:07.694Z,31.70
2018-07-31T11:37:36.141Z,31.60
2018-07-31T11:40:04.741Z,29.40
2018-07-31T11:42:33.197Z,29.30
2018-07-31T11:47:29.809Z,29.30
2018-07-31T11:49:58.315Z,29.80
2018-07-31T11:52:26.778Z,30.90
2018-07-31T11:54:55.306Z,30.00
2018-07-31T11:57:23.773Z,28.00
2018-07-31T11:59:52.360Z,27.60
2018-07-31T12:02:20.848Z,27.90
2018-07-31T12:04:49.352Z,27.30
2018-07-31T12:07:17.830Z,27.50
2018-07-31T12:09:46.285Z,27.20
2018-07-31T12:12:14.762Z,26.90
2018-07-31T12:14:43.212Z,27.00
2018-07-31T12:17:11.781Z,28.10
2018-07-31T12:19:40.286Z,27.50
2018-07-31T12:22:08.775Z,27.20
2018-07-31T12:24:37.229Z,27.10
2018-07-31T12:27:05.712Z,28.30
2018-07-31T12:29:34.179Z,28.20
2018-07-31T12:32:02.757Z,28.10
2018-07-31T12:34:31.221Z,28.30
2018-07-31T12:37:00.456Z,28.50
2018-07-31T12:39:28.893Z,28.90
2018-07-31T12:41:57.369Z,28.50
2018-07-31T12:44:25.827Z,29.50
2018-07-31T12:46:54.329Z,31.50
2018-07-31T12:49:22.777Z,30.90
2018-07-31T12:51:51.233Z,30.60
2018-07-31T12:54:19.705Z,32.00
2018-07-31T12:56:48.169Z,32.20
2018-07-31T12:59:16.602Z,33.10
2018-07-31T13:01:45.075Z,33.30
2018-07-31T13:04:13.564Z,33.50
2018-07-31T13:06:42.047Z,31.50
2018-07-31T13:09:10.569Z,28.90
2018-07-31T13:11:39.042Z,29.90
2018-07-31T13:14:07.534Z,32.20
2018-07-31T13:16:36.010Z,34.90
2018-07-31T13:19:04.471Z,35.60
2018-07-31T13:21:32.961Z,36.60
2018-07-31T13:24:01.433Z,37.10
2018-07-31T13:26:29.901Z,38.60
2018-07-31T13:28:58.325Z,39.70
2018-07-31T13:31:26.768Z,40.30
2018-07-31T13:33:55.212Z,40.70
2018-07-31T13:36:23.788Z,41.50
2018-07-31T13:38:52.442Z,43.10
2018-07-31T13:41:21.329Z,42.00
2018-07-31T13:43:49.962Z,40.60
2018-07-31T13:46:18.302Z,38.00
2018-07-31T13:48:46.757Z,38.90
2018-07-31T13:53:43.386Z,40.40
2018-07-31T13:56:12.068Z,41.20
2018-07-31T13:58:40.565Z,42.10
2018-07-31T14:01:09.024Z,42.70
2018-07-31T14:03:37.480Z,41.50
2018-07-31T14:06:06.053Z,41.20
2018-07-31T14:08:34.524Z,42.20
2018-07-31T14:11:02.995Z,43.10
2018-07-31T14:13:31.440Z,44.80
2018-07-31T14:18:28.085Z,41.80
2018-07-31T14:20:56.556Z,41.20
2018-07-31T14:23:25.059Z,40.40
2018-07-31T14:28:21.658Z,38.20
2018-07-31T14:30:50.186Z,37.20
2018-07-31T14:33:18.595Z,36.30
2018-07-31T14:35:47.052Z,36.30
2018-07-31T14:38:15.549Z,35.30
2018-07-31T14:40:44.044Z,36.40
2018-07-31T14:43:12.539Z,37.20
2018-07-31T14:45:41.065Z,37.30
2018-07-31T14:48:09.554Z,37.80
2018-07-31T14:50:38.026Z,36.90
2018-07-31T14:53:06.552Z,36.40
2018-07-31T14:55:35.005Z,37.10
2018-07-31T14:58:03.973Z,36.90
2018-07-31T15:00:32.456Z,35.70
2018-07-31T15:03:00.997Z,34.80
2018-07-31T15:05:29.432Z,35.70
2018-07-31T15:07:57.907Z,36.10
2018-07-31T15:10:26.361Z,36.50
2018-07-31T15:12:54.843Z,37.00
2018-07-31T15:17:51.440Z,38.90
2018-07-31T15:20:19.870Z,38.30
2018-07-31T15:22:48.384Z,37.50
2018-07-31T15:25:16.822Z,38.10
2018-07-31T15:27:45.301Z,36.70
2018-07-31T15:32:41.886Z,36.90
2018-07-31T15:35:10.333Z,36.70
2018-07-31T15:37:38.786Z,37.00
2018-07-31T15:40:07.406Z,36.70
2018-07-31T15:42:35.841Z,36.50
2018-07-31T15:45:04.593Z,35.40
2018-07-31T15:47:33.051Z,36.30
2018-07-31T15:50:01.515Z,35.90
2018-07-31T15:52:29.966Z,35.70
2018-07-31T15:54:58.689Z,35.80
2018-07-31T15:57:27.174Z,35.60
2018-07-31T15:59:55.636Z,35.50
2018-07-31T16:02:24.092Z,34.70
2018-07-31T16:04:52.573Z,34.80
2018-07-31T16:07:21.037Z,35.50
2018-07-31T16:09:49.502Z,35.40
2018-07-31T16:12:17.966Z,35.10
2018-07-31T16:14:46.400Z,34.80
2018-07-31T16:17:14.904Z,35.20
2018-07-31T16:19:43.357Z,35.30
2018-07-31T16:22:11.865Z,35.60
2018-07-31T16:24:40.448Z,35.20
2018-07-31T16:27:08.891Z,35.10
2018-07-31T16:29:37.390Z,34.10
2018-07-31T16:32:05.878Z,34.00
2018-07-31T16:34:34.368Z,34.40
2018-07-31T16:37:02.833Z,34.40
2018-07-31T16:39:31.296Z,34.80
2018-07-31T16:44:28.564Z,34.90
2018-07-31T16:46:57.018Z,34.50
2018-07-31T16:49:25.507Z,34.60
2018-07-31T16:51:53.944Z,35.50
2018-07-31T16:54:22.394Z,35.30
2018-07-31T16:56:50.900Z,35.00
2018-07-31T16:59:19.345Z,35.40
2018-07-31T17:01:47.876Z,36.80
2018-07-31T17:04:16.418Z,35.30
2018-07-31T17:06:44.899Z,35.50
2018-07-31T17:09:13.382Z,36.30
2018-07-31T17:11:41.956Z,36.50
2018-07-31T17:14:10.401Z,36.00
2018-07-31T17:16:38.867Z,36.60
2018-07-31T17:19:07.344Z,36.90
2018-07-31T17:21:35.800Z,36.70
2018-07-31T17:24:04.274Z,36.40
2018-07-31T17:26:32.705Z,36.90
2018-07-31T17:31:29.357Z,37.60
2018-07-31T17:33:58.461Z,36.40
2018-07-31T17:39:11.162Z,36.80
2018-07-31T17:41:40.159Z,37.10
2018-07-31T17:44:08.843Z,38.10
2018-07-31T17:46:37.273Z,38.10
2018-07-31T17:49:06.073Z,38.30
2018-07-31T17:51:34.538Z,38.80
2018-07-31T17:54:03.049Z,38.50
2018-07-31T17:56:31.493Z,38.70
2018-07-31T17:58:59.972Z,39.50
2018-07-31T18:01:28.436Z,40.00
2018-07-31T18:03:56.880Z,40.30
2018-07-31T18:06:25.325Z,39.50
2018-07-31T18:08:53.803Z,40.30
2018-07-31T18:13:50.534Z,40.20
2018-07-31T18:16:19.003Z,40.20
2018-07-31T18:18:47.502Z,40.80
2018-07-31T18:21:15.941Z,41.30
2018-07-31T18:23:44.451Z,41.80
2018-07-31T18:26:12.868Z,41.80
2018-07-31T18:28:41.292Z,42.50
2018-07-31T18:31:09.741Z,42.60
2018-07-31T18:33:38.185Z,43.10
2018-07-31T18:36:06.701Z,43.40
2018-07-31T18:38:35.133Z,43.30
2018-07-31T18:41:03.723Z,43.70
2018-07-31T18:43:32.206Z,43.50
2018-07-31T18:46:00.663Z,44.10
2018-07-31T18:48:29.124Z,44.20
2018-07-31T18:50:57.573Z,44.90
2018-07-31T18:53:26.044Z,44.80
2018-07-31T18:55:54.492Z,46.10
2018-07-31T18:58:23.414Z,45.50
2018-07-31T19:00:51.929Z,46.00
2018-07-31T19:03:20.381Z,45.50
2018-07-31T19:05:48.817Z,46.00
2018-07-31T19:08:17.277Z,46.50
2018-07-31T19:10:45.721Z,46.80
2018-07-31T19:13:14.208Z,47.10
2018-07-31T19:15:42.657Z,47.50
2018-07-31T19:18:11.410Z,48.70
2018-07-31T19:20:39.892Z,49.40
2018-07-31T19:23:08.396Z,50.20
2018-07-31T19:33:01.259Z,56.60
2018-07-31T19:35:29.746Z,58.90
2018-07-31T19:37:58.253Z,60.90
2018-07-31T19:40:26.752Z,63.50
2018-07-31T19:42:55.185Z,66.20
2018-07-31T19:45:23.698Z,68.70
2018-07-31T19:47:52.341Z,71.20
2018-07-31T19:50:21.133Z,73.70
2018-07-31T19:52:49.618Z,76.70
2018-07-31T19:55:18.104Z,77.80
2018-07-31T19:57:48.640Z,80.10
2018-07-31T20:00:17.157Z,80.20
2018-07-31T20:02:45.657Z,83.30
2018-07-31T20:05:14.120Z,84.00
2018-07-31T20:07:42.560Z,86.30
2018-07-31T20:10:11.055Z,87.30
2018-07-31T20:12:39.523Z,87.40
2018-07-31T20:15:08.053Z,88.80
2018-07-31T20:17:36.466Z,89.30
2018-07-31T20:20:05.190Z,90.20
2018-07-31T20:22:33.644Z,90.10
2018-07-31T20:27:31.834Z,91.60
2018-07-31T20:32:28.476Z,91.90
2018-07-31T20:34:56.921Z,91.60
2018-07-31T20:37:25.409Z,91.70
2018-07-31T20:39:53.896Z,91.70
2018-07-31T20:42:22.326Z,91.90
2018-07-31T20:44:50.773Z,92.60
2018-07-31T20:47:19.238Z,92.30
2018-07-31T20:49:47.682Z,92.90
2018-07-31T20:54:44.253Z,92.60
2018-07-31T20:57:12.882Z,93.60
2018-07-31T21:02:09.497Z,94.20
2018-07-31T21:07:06.285Z,94.80
2018-07-31T21:09:34.745Z,94.20
2018-07-31T21:14:31.416Z,95.10
2018-07-31T21:16:59.893Z,94.90
2018-07-31T21:19:28.361Z,95.10
2018-07-31T21:21:56.869Z,94.80
2018-07-31T21:24:25.617Z,95.40
2018-07-31T21:26:54.172Z,95.70
2018-07-31T21:31:50.800Z,96.40
2018-07-31T21:34:19.289Z,95.90
2018-07-31T21:36:47.736Z,96.50
2018-07-31T21:39:16.236Z,97.10
2018-07-31T21:41:44.648Z,97.00
2018-07-31T21:44:13.161Z,97.40
2018-07-31T21:46:41.619Z,97.20
2018-07-31T21:51:38.228Z,97.40
2018-07-31T21:54:06.733Z,97.20
2018-07-31T22:01:32.012Z,96.90
2018-07-31T22:06:28.787Z,97.50
2018-07-31T22:08:57.337Z,97.30
2018-07-31T22:11:25.787Z,97.40
2018-07-31T22:13:54.308Z,97.70
2018-07-31T22:18:50.943Z,97.90
2018-07-31T22:21:19.424Z,98.50
2018-07-31T22:23:47.853Z,98.60
2018-07-31T22:26:16.325Z,98.70
2018-07-31T22:28:44.833Z,98.80
2018-07-31T22:31:13.242Z,98.30
2018-07-31T22:33:41.677Z,98.10
2018-07-31T22:36:10.140Z,98.20
2018-07-31T22:41:06.738Z,97.20
2018-07-31T22:43:35.229Z,96.90
2018-07-31T22:46:03.621Z,96.60
2018-07-31T22:48:32.112Z,96.20
2018-07-31T22:51:00.548Z,96.40
2018-07-31T22:53:29.001Z,96.10
2018-07-31T22:55:57.439Z,95.70
2018-07-31T22:58:25.905Z,95.50
2018-07-31T23:00:54.357Z,95.30
2018-07-31T23:03:22.814Z,95.10
2018-07-31T23:05:51.249Z,95.10
2018-07-31T23:08:19.676Z,94.80
2018-07-31T23:10:48.172Z,95.00
2018-07-31T23:13:16.634Z,94.70
2018-07-31T23:15:45.097Z,94.60
2018-07-31T23:20:41.717Z,94.30
2018-07-31T23:23:10.163Z,93.90
2018-07-31T23:25:38.604Z,94.10
2018-07-31T23:28:07.072Z,94.30
2018-07-31T23:30:35.535Z,94.50
2018-07-31T23:33:03.978Z,94.30
2018-07-31T23:35:32.409Z,94.20
2018-07-31T23:38:00.863Z,94.50
2018-07-31T23:40:29.283Z,94.80
2018-07-31T23:42:57.756Z,94.50
2018-07-31T23:45:26.217Z,95.00
2018-07-31T23:47:54.801Z,94.90
2018-07-31T23:50:23.293Z,94.90
2018-07-31T23:55:19.872Z,95.00
2018-07-31T23:57:51.124Z,95.40
